sensor_id;sensor_type;location;lat;lon;timestamp;temperature;humidity
7934;DHT22;4012;48.896;9.192;2024-02-26T00:01:00;8.80;99.90
7934;DHT22;4012;48.896;9.192;2024-02-26T00:03:27;8.90;99.90
7934;DHT22;4012;48.896;9.192;2024-02-26T00:05:53;8.80;99.90
7934;DHT22;4012;48.896;9.192;2024-02-26T00:08:18;8.90;99.90
7934;DHT22;4012;48.896;9.192;2024-02-26T00:10:44;8.80;99.90
7934;DHT22;4012;48.896;9.192;2024-02-26T00:13:09;8.90;99.90
7934;DHT22;4012;48.896;9.192;2024-02-26T00:15:35;8.90;99.90
7934;DHT22;4012;48.896;9.192;2024-02-26T00:18:01;8.80;99.90
7934;DHT22;4012;48.896;9.192;2024-02-26T00:20:26;8.80;99.90
7934;DHT22;4012;48.896;9.192;2024-02-26T00:22:52;8.80;99.90
7934;DHT22;4012;48.896;9.192;2024-02-26T00:25:18;8.80;99.90
7934;DHT22;4012;48.896;9.192;2024-02-26T00:27:43;8.80;99.90
7934;DHT22;4012;48.896;9.192;2024-02-26T00:30:10;8.80;99.90
7934;DHT22;4012;48.896;9.192;2024-02-26T00:32:35;8.80;99.90
7934;DHT22;4012;48.896;9.192;2024-02-26T00:35:01;8.70;99.90
7934;DHT22;4012;48.896;9.192;2024-02-26T00:37:27;8.70;99.90
7934;DHT22;4012;48.896;9.192;2024-02-26T00:39:52;8.60;99.90
7934;DHT22;4012;48.896;9.192;2024-02-26T00:42:19;8.70;99.90
7934;DHT22;4012;48.896;9.192;2024-02-26T00:44:45;8.60;99.90
7934;DHT22;4012;48.896;9.192;2024-02-26T00:47:10;8.60;99.90
7934;DHT22;4012;48.896;9.192;2024-02-26T00:49:37;8.70;99.90
7934;DHT22;4012;48.896;9.192;2024-02-26T00:52:02;8.60;99.90
7934;DHT22;4012;48.896;9.192;2024-02-26T00:54:28;8.60;99.90
7934;DHT22;4012;48.896;9.192;2024-02-26T00:56:54;8.60;99.90
7934;DHT22;4012;48.896;9.192;2024-02-26T00:59:19;8.60;99.90
7934;DHT22;4012;48.896;9.192;2024-02-26T01:01:45;8.50;99.90
7934;DHT22;4012;48.896;9.192;2024-02-26T01:04:11;8.50;99.90
7934;DHT22;4012;48.896;9.192;2024-02-26T01:06:37;8.40;99.90
7934;DHT22;4012;48.896;9.192;2024-02-26T01:09:02;8.40;99.90
7934;DHT22;4012;48.896;9.192;2024-02-26T01:11:28;8.30;99.90
7934;DHT22;4012;48.896;9.192;2024-02-26T01:13:54;8.40;99.90
7934;DHT22;4012;48.896;9.192;2024-02-26T01:16:22;8.40;99.90
7934;DHT22;4012;48.896;9.192;2024-02-26T01:18:48;8.40;99.90
7934;DHT22;4012;48.896;9.192;2024-02-26T01:21:13;8.40;99.90
7934;DHT22;4012;48.896;9.192;2024-02-26T01:23:40;8.50;99.90
7934;DHT22;4012;48.896;9.192;2024-02-26T01:26:05;8.50;99.90
7934;DHT22;4012;48.896;9.192;2024-02-26T01:28:31;8.60;99.90
7934;DHT22;4012;48.896;9.192;2024-02-26T01:30:56;8.30;99.90
7934;DHT22;4012;48.896;9.192;2024-02-26T01:33:22;8.30;99.90
7934;DHT22;4012;48.896;9.192;2024-02-26T01:35:48;8.30;99.90
7934;DHT22;4012;48.896;9.192;2024-02-26T01:38:13;8.20;99.90
7934;DHT22;4012;48.896;9.192;2024-02-26T01:40:39;8.20;99.90
7934;DHT22;4012;48.896;9.192;2024-02-26T01:43:04;8.10;99.90
7934;DHT22;4012;48.896;9.192;2024-02-26T01:45:30;8.20;99.90
7934;DHT22;4012;48.896;9.192;2024-02-26T01:47:56;8.30;99.90
7934;DHT22;4012;48.896;9.192;2024-02-26T01:50:22;8.30;99.90
7934;DHT22;4012;48.896;9.192;2024-02-26T01:52:50;8.20;99.90
7934;DHT22;4012;48.896;9.192;2024-02-26T01:55:18;8.20;99.90
7934;DHT22;4012;48.896;9.192;2024-02-26T01:57:45;8.20;99.90
7934;DHT22;4012;48.896;9.192;2024-02-26T02:00:12;8.20;99.90
7934;DHT22;4012;48.896;9.192;2024-02-26T02:02:38;8.20;99.90
7934;DHT22;4012;48.896;9.192;2024-02-26T02:05:06;8.30;99.90
7934;DHT22;4012;48.896;9.192;2024-02-26T02:07:32;8.30;99.90
7934;DHT22;4012;48.896;9.192;2024-02-26T02:09:58;8.20;99.90
7934;DHT22;4012;48.896;9.192;2024-02-26T02:12:24;8.20;99.90
7934;DHT22;4012;48.896;9.192;2024-02-26T02:14:50;8.30;99.90
7934;DHT22;4012;48.896;9.192;2024-02-26T02:17:15;8.30;99.90
7934;DHT22;4012;48.896;9.192;2024-02-26T02:19:41;8.30;99.90
7934;DHT22;4012;48.896;9.192;2024-02-26T02:22:06;8.30;99.90
7934;DHT22;4012;48.896;9.192;2024-02-26T02:24:32;8.40;99.90
7934;DHT22;4012;48.896;9.192;2024-02-26T02:26:58;8.40;99.90
7934;DHT22;4012;48.896;9.192;2024-02-26T02:29:24;8.30;99.90
7934;DHT22;4012;48.896;9.192;2024-02-26T02:31:50;8.40;99.90
7934;DHT22;4012;48.896;9.192;2024-02-26T02:34:15;8.50;99.90
7934;DHT22;4012;48.896;9.192;2024-02-26T02:36:51;8.50;99.90
7934;DHT22;4012;48.896;9.192;2024-02-26T02:39:17;8.40;99.90
7934;DHT22;4012;48.896;9.192;2024-02-26T02:41:43;8.40;99.90
7934;DHT22;4012;48.896;9.192;2024-02-26T02:44:08;8.40;99.90
7934;DHT22;4012;48.896;9.192;2024-02-26T02:46:34;8.50;99.90
7934;DHT22;4012;48.896;9.192;2024-02-26T02:49:01;8.30;99.90
7934;DHT22;4012;48.896;9.192;2024-02-26T02:51:26;8.40;99.90
7934;DHT22;4012;48.896;9.192;2024-02-26T02:53:52;8.60;99.90
7934;DHT22;4012;48.896;9.192;2024-02-26T02:56:18;8.50;99.90
7934;DHT22;4012;48.896;9.192;2024-02-26T02:58:43;8.50;99.90
7934;DHT22;4012;48.896;9.192;2024-02-26T03:01:09;8.50;99.90
7934;DHT22;4012;48.896;9.192;2024-02-26T03:03:35;8.40;99.90
7934;DHT22;4012;48.896;9.192;2024-02-26T03:06:02;8.50;99.90
7934;DHT22;4012;48.896;9.192;2024-02-26T03:08:28;8.40;99.90
7934;DHT22;4012;48.896;9.192;2024-02-26T03:10:53;8.40;99.90
7934;DHT22;4012;48.896;9.192;2024-02-26T03:13:19;8.50;99.90
7934;DHT22;4012;48.896;9.192;2024-02-26T03:15:45;8.60;99.90
7934;DHT22;4012;48.896;9.192;2024-02-26T03:18:10;8.70;99.90
7934;DHT22;4012;48.896;9.192;2024-02-26T03:20:36;8.70;99.90
7934;DHT22;4012;48.896;9.192;2024-02-26T03:23:02;8.80;99.90
7934;DHT22;4012;48.896;9.192;2024-02-26T03:25:28;8.70;99.90
7934;DHT22;4012;48.896;9.192;2024-02-26T03:27:54;8.80;99.90
7934;DHT22;4012;48.896;9.192;2024-02-26T03:30:19;8.80;99.90
7934;DHT22;4012;48.896;9.192;2024-02-26T03:32:45;8.70;99.90
7934;DHT22;4012;48.896;9.192;2024-02-26T03:35:12;8.70;99.90
7934;DHT22;4012;48.896;9.192;2024-02-26T03:37:38;8.60;99.90
7934;DHT22;4012;48.896;9.192;2024-02-26T03:40:04;8.50;99.90
7934;DHT22;4012;48.896;9.192;2024-02-26T03:42:29;8.50;99.90
7934;DHT22;4012;48.896;9.192;2024-02-26T03:44:55;8.50;99.90
7934;DHT22;4012;48.896;9.192;2024-02-26T03:47:20;8.50;99.90
7934;DHT22;4012;48.896;9.192;2024-02-26T03:49:46;8.40;99.90
7934;DHT22;4012;48.896;9.192;2024-02-26T03:52:11;8.40;99.90
7934;DHT22;4012;48.896;9.192;2024-02-26T03:54:37;8.30;99.90
7934;DHT22;4012;48.896;9.192;2024-02-26T03:57:03;8.10;99.90
7934;DHT22;4012;48.896;9.192;2024-02-26T03:59:29;7.90;99.90
7934;DHT22;4012;48.896;9.192;2024-02-26T04:01:55;7.80;99.90
7934;DHT22;4012;48.896;9.192;2024-02-26T04:04:20;7.70;99.90
7934;DHT22;4012;48.896;9.192;2024-02-26T04:06:46;7.60;99.90
7934;DHT22;4012;48.896;9.192;2024-02-26T04:09:15;7.70;99.90
7934;DHT22;4012;48.896;9.192;2024-02-26T04:11:41;7.60;99.90
7934;DHT22;4012;48.896;9.192;2024-02-26T04:14:08;7.80;99.90
7934;DHT22;4012;48.896;9.192;2024-02-26T04:16:34;7.70;99.90
7934;DHT22;4012;48.896;9.192;2024-02-26T04:19:03;7.70;99.90
7934;DHT22;4012;48.896;9.192;2024-02-26T04:21:29;7.80;99.90
7934;DHT22;4012;48.896;9.192;2024-02-26T04:23:54;8.00;99.90
7934;DHT22;4012;48.896;9.192;2024-02-26T04:26:26;8.00;99.90
7934;DHT22;4012;48.896;9.192;2024-02-26T04:28:51;8.00;99.90
7934;DHT22;4012;48.896;9.192;2024-02-26T04:31:18;7.90;99.90
7934;DHT22;4012;48.896;9.192;2024-02-26T04:33:44;7.80;99.90
7934;DHT22;4012;48.896;9.192;2024-02-26T04:36:15;7.70;99.90
7934;DHT22;4012;48.896;9.192;2024-02-26T04:38:42;7.60;99.90
7934;DHT22;4012;48.896;9.192;2024-02-26T04:41:08;7.50;99.90
7934;DHT22;4012;48.896;9.192;2024-02-26T04:43:34;7.40;99.90
7934;DHT22;4012;48.896;9.192;2024-02-26T04:45:59;7.40;99.90
7934;DHT22;4012;48.896;9.192;2024-02-26T04:48:26;7.50;99.90
7934;DHT22;4012;48.896;9.192;2024-02-26T04:50:51;7.50;99.90
7934;DHT22;4012;48.896;9.192;2024-02-26T04:53:17;7.40;99.90
7934;DHT22;4012;48.896;9.192;2024-02-26T04:55:42;7.40;99.90
7934;DHT22;4012;48.896;9.192;2024-02-26T04:58:08;7.40;99.90
7934;DHT22;4012;48.896;9.192;2024-02-26T05:00:34;7.40;99.90
7934;DHT22;4012;48.896;9.192;2024-02-26T05:02:59;7.50;99.90
7934;DHT22;4012;48.896;9.192;2024-02-26T05:05:26;7.50;99.90
7934;DHT22;4012;48.896;9.192;2024-02-26T05:07:51;7.40;99.90
7934;DHT22;4012;48.896;9.192;2024-02-26T05:10:17;7.50;99.90
7934;DHT22;4012;48.896;9.192;2024-02-26T05:13:01;7.60;99.90
7934;DHT22;4012;48.896;9.192;2024-02-26T05:15:27;7.60;99.90
7934;DHT22;4012;48.896;9.192;2024-02-26T05:17:53;7.60;99.90
7934;DHT22;4012;48.896;9.192;2024-02-26T05:20:18;7.60;99.90
7934;DHT22;4012;48.896;9.192;2024-02-26T05:22:44;7.60;99.90
7934;DHT22;4012;48.896;9.192;2024-02-26T05:25:09;7.70;99.90
7934;DHT22;4012;48.896;9.192;2024-02-26T05:27:35;7.70;99.90
7934;DHT22;4012;48.896;9.192;2024-02-26T05:30:01;7.70;99.90
7934;DHT22;4012;48.896;9.192;2024-02-26T05:32:26;7.80;99.90
7934;DHT22;4012;48.896;9.192;2024-02-26T05:34:52;7.80;99.90
7934;DHT22;4012;48.896;9.192;2024-02-26T05:37:17;7.80;99.90
7934;DHT22;4012;48.896;9.192;2024-02-26T05:39:43;7.80;99.90
7934;DHT22;4012;48.896;9.192;2024-02-26T05:42:08;7.70;99.90
7934;DHT22;4012;48.896;9.192;2024-02-26T05:44:35;7.80;99.90
7934;DHT22;4012;48.896;9.192;2024-02-26T05:47:00;7.70;99.90
7934;DHT22;4012;48.896;9.192;2024-02-26T05:49:26;7.80;99.90
7934;DHT22;4012;48.896;9.192;2024-02-26T05:51:51;7.90;99.90
7934;DHT22;4012;48.896;9.192;2024-02-26T05:54:17;7.90;99.90
7934;DHT22;4012;48.896;9.192;2024-02-26T05:56:42;7.90;99.90
7934;DHT22;4012;48.896;9.192;2024-02-26T05:59:08;7.90;99.90
7934;DHT22;4012;48.896;9.192;2024-02-26T06:01:34;7.90;99.90
7934;DHT22;4012;48.896;9.192;2024-02-26T06:03:59;7.80;99.90
7934;DHT22;4012;48.896;9.192;2024-02-26T06:06:25;7.80;99.90
7934;DHT22;4012;48.896;9.192;2024-02-26T06:08:50;7.80;99.90
7934;DHT22;4012;48.896;9.192;2024-02-26T06:11:16;7.90;99.90
7934;DHT22;4012;48.896;9.192;2024-02-26T06:13:42;7.90;99.90
7934;DHT22;4012;48.896;9.192;2024-02-26T06:16:10;8.00;99.90
7934;DHT22;4012;48.896;9.192;2024-02-26T06:18:36;8.00;99.90
7934;DHT22;4012;48.896;9.192;2024-02-26T06:21:02;8.00;99.90
7934;DHT22;4012;48.896;9.192;2024-02-26T06:23:27;7.90;99.90
7934;DHT22;4012;48.896;9.192;2024-02-26T06:25:53;7.90;99.90
7934;DHT22;4012;48.896;9.192;2024-02-26T06:28:19;7.90;99.90
7934;DHT22;4012;48.896;9.192;2024-02-26T06:30:44;7.80;99.90
7934;DHT22;4012;48.896;9.192;2024-02-26T06:33:11;7.80;99.90
7934;DHT22;4012;48.896;9.192;2024-02-26T06:35:37;7.70;99.90
7934;DHT22;4012;48.896;9.192;2024-02-26T06:38:03;7.70;99.90
7934;DHT22;4012;48.896;9.192;2024-02-26T06:40:29;7.70;99.90
7934;DHT22;4012;48.896;9.192;2024-02-26T06:42:55;7.70;99.90
7934;DHT22;4012;48.896;9.192;2024-02-26T06:45:21;7.70;99.90
7934;DHT22;4012;48.896;9.192;2024-02-26T06:47:47;7.70;99.90
7934;DHT22;4012;48.896;9.192;2024-02-26T06:50:13;7.70;99.90
7934;DHT22;4012;48.896;9.192;2024-02-26T06:52:44;7.70;99.90
7934;DHT22;4012;48.896;9.192;2024-02-26T06:55:10;7.60;99.90
7934;DHT22;4012;48.896;9.192;2024-02-26T06:57:35;7.60;99.90
7934;DHT22;4012;48.896;9.192;2024-02-26T07:00:01;7.60;99.90
7934;DHT22;4012;48.896;9.192;2024-02-26T07:02:29;7.70;99.90
7934;DHT22;4012;48.896;9.192;2024-02-26T07:04:54;7.70;99.90
7934;DHT22;4012;48.896;9.192;2024-02-26T07:07:21;7.70;99.90
7934;DHT22;4012;48.896;9.192;2024-02-26T07:09:49;7.70;99.90
7934;DHT22;4012;48.896;9.192;2024-02-26T07:12:14;7.80;99.90
7934;DHT22;4012;48.896;9.192;2024-02-26T07:14:41;7.90;99.90
7934;DHT22;4012;48.896;9.192;2024-02-26T07:17:07;8.00;99.90
7934;DHT22;4012;48.896;9.192;2024-02-26T07:19:33;8.00;99.90
7934;DHT22;4012;48.896;9.192;2024-02-26T07:21:59;8.00;99.90
7934;DHT22;4012;48.896;9.192;2024-02-26T07:24:27;8.10;99.90
7934;DHT22;4012;48.896;9.192;2024-02-26T07:26:52;8.20;99.90
7934;DHT22;4012;48.896;9.192;2024-02-26T07:29:20;8.30;99.90
7934;DHT22;4012;48.896;9.192;2024-02-26T07:31:45;8.30;99.90
7934;DHT22;4012;48.896;9.192;2024-02-26T07:34:11;8.20;99.90
7934;DHT22;4012;48.896;9.192;2024-02-26T07:36:37;8.30;99.90
7934;DHT22;4012;48.896;9.192;2024-02-26T07:39:02;8.10;99.90
7934;DHT22;4012;48.896;9.192;2024-02-26T07:41:28;8.20;99.90
7934;DHT22;4012;48.896;9.192;2024-02-26T07:43:53;8.20;99.90
7934;DHT22;4012;48.896;9.192;2024-02-26T07:46:19;8.10;99.90
7934;DHT22;4012;48.896;9.192;2024-02-26T07:48:44;8.00;99.90
7934;DHT22;4012;48.896;9.192;2024-02-26T07:51:12;7.90;99.90
7934;DHT22;4012;48.896;9.192;2024-02-26T07:53:39;8.00;99.90
7934;DHT22;4012;48.896;9.192;2024-02-26T07:56:05;7.90;99.90
7934;DHT22;4012;48.896;9.192;2024-02-26T07:58:32;8.10;99.90
7934;DHT22;4012;48.896;9.192;2024-02-26T08:00:58;8.30;99.90
7934;DHT22;4012;48.896;9.192;2024-02-26T08:03:24;8.30;99.90
7934;DHT22;4012;48.896;9.192;2024-02-26T08:05:51;8.40;99.90
7934;DHT22;4012;48.896;9.192;2024-02-26T08:08:16;8.30;99.90
7934;DHT22;4012;48.896;9.192;2024-02-26T08:10:42;8.20;99.90
7934;DHT22;4012;48.896;9.192;2024-02-26T08:13:08;8.20;99.90
7934;DHT22;4012;48.896;9.192;2024-02-26T08:15:34;8.20;99.90
7934;DHT22;4012;48.896;9.192;2024-02-26T08:18:01;8.20;99.90
7934;DHT22;4012;48.896;9.192;2024-02-26T08:20:30;8.10;99.90
7934;DHT22;4012;48.896;9.192;2024-02-26T08:22:56;8.20;99.90
7934;DHT22;4012;48.896;9.192;2024-02-26T08:25:23;8.00;99.90
7934;DHT22;4012;48.896;9.192;2024-02-26T08:27:48;8.00;99.90
7934;DHT22;4012;48.896;9.192;2024-02-26T08:30:15;8.00;99.90
7934;DHT22;4012;48.896;9.192;2024-02-26T08:32:43;8.10;99.90
7934;DHT22;4012;48.896;9.192;2024-02-26T08:35:09;8.10;99.90
7934;DHT22;4012;48.896;9.192;2024-02-26T08:37:35;8.10;99.90
7934;DHT22;4012;48.896;9.192;2024-02-26T08:40:00;8.00;99.90
7934;DHT22;4012;48.896;9.192;2024-02-26T08:42:26;8.00;99.90
7934;DHT22;4012;48.896;9.192;2024-02-26T08:44:51;8.10;99.90
7934;DHT22;4012;48.896;9.192;2024-02-26T08:47:20;8.10;99.90
7934;DHT22;4012;48.896;9.192;2024-02-26T08:49:45;8.20;99.90
7934;DHT22;4012;48.896;9.192;2024-02-26T08:52:11;8.20;99.90
7934;DHT22;4012;48.896;9.192;2024-02-26T08:54:37;8.30;99.90
7934;DHT22;4012;48.896;9.192;2024-02-26T08:57:03;8.30;99.90
7934;DHT22;4012;48.896;9.192;2024-02-26T08:59:29;8.30;99.90
7934;DHT22;4012;48.896;9.192;2024-02-26T09:01:54;8.30;99.90
7934;DHT22;4012;48.896;9.192;2024-02-26T09:04:20;8.40;99.90
7934;DHT22;4012;48.896;9.192;2024-02-26T09:06:46;8.50;99.90
7934;DHT22;4012;48.896;9.192;2024-02-26T09:09:12;8.60;99.90
7934;DHT22;4012;48.896;9.192;2024-02-26T09:11:38;8.80;99.90
7934;DHT22;4012;48.896;9.192;2024-02-26T09:14:03;8.90;99.90
7934;DHT22;4012;48.896;9.192;2024-02-26T09:16:29;8.90;99.90
7934;DHT22;4012;48.896;9.192;2024-02-26T09:18:56;8.90;99.90
7934;DHT22;4012;48.896;9.192;2024-02-26T09:21:22;9.00;99.90
7934;DHT22;4012;48.896;9.192;2024-02-26T09:23:50;8.90;99.90
7934;DHT22;4012;48.896;9.192;2024-02-26T09:26:15;9.10;99.90
7934;DHT22;4012;48.896;9.192;2024-02-26T09:28:42;9.20;99.90
7934;DHT22;4012;48.896;9.192;2024-02-26T09:31:07;9.50;99.90
7934;DHT22;4012;48.896;9.192;2024-02-26T09:33:33;9.20;99.90
7934;DHT22;4012;48.896;9.192;2024-02-26T09:35:59;9.20;99.90
7934;DHT22;4012;48.896;9.192;2024-02-26T09:38:26;9.10;99.90
7934;DHT22;4012;48.896;9.192;2024-02-26T09:40:52;9.30;99.90
7934;DHT22;4012;48.896;9.192;2024-02-26T09:43:21;9.60;99.90
7934;DHT22;4012;48.896;9.192;2024-02-26T09:45:49;9.40;99.90
7934;DHT22;4012;48.896;9.192;2024-02-26T09:48:15;9.30;99.90
7934;DHT22;4012;48.896;9.192;2024-02-26T09:50:43;9.20;99.90
7934;DHT22;4012;48.896;9.192;2024-02-26T09:53:11;9.00;99.90
7934;DHT22;4012;48.896;9.192;2024-02-26T09:55:37;9.00;99.90
7934;DHT22;4012;48.896;9.192;2024-02-26T09:58:05;9.00;99.90
7934;DHT22;4012;48.896;9.192;2024-02-26T10:00:31;9.20;99.90
7934;DHT22;4012;48.896;9.192;2024-02-26T10:03:04;9.50;99.90
7934;DHT22;4012;48.896;9.192;2024-02-26T10:05:31;9.50;99.90
7934;DHT22;4012;48.896;9.192;2024-02-26T10:07:58;9.70;99.90
7934;DHT22;4012;48.896;9.192;2024-02-26T10:10:28;10.00;99.90
7934;DHT22;4012;48.896;9.192;2024-02-26T10:12:54;10.20;99.90
7934;DHT22;4012;48.896;9.192;2024-02-26T10:15:19;11.10;99.90
7934;DHT22;4012;48.896;9.192;2024-02-26T10:17:45;11.60;99.90
7934;DHT22;4012;48.896;9.192;2024-02-26T10:20:18;12.00;99.90
7934;DHT22;4012;48.896;9.192;2024-02-26T10:22:44;12.20;99.90
7934;DHT22;4012;48.896;9.192;2024-02-26T10:25:10;12.10;99.90
7934;DHT22;4012;48.896;9.192;2024-02-26T10:27:36;12.10;99.90
7934;DHT22;4012;48.896;9.192;2024-02-26T10:30:26;12.50;99.90
7934;DHT22;4012;48.896;9.192;2024-02-26T10:32:52;12.60;99.90
7934;DHT22;4012;48.896;9.192;2024-02-26T10:35:18;12.40;99.90
7934;DHT22;4012;48.896;9.192;2024-02-26T10:37:46;12.80;99.90
7934;DHT22;4012;48.896;9.192;2024-02-26T10:40:13;12.80;99.90
7934;DHT22;4012;48.896;9.192;2024-02-26T10:42:40;12.40;99.90
7934;DHT22;4012;48.896;9.192;2024-02-26T10:45:06;12.60;99.90
7934;DHT22;4012;48.896;9.192;2024-02-26T10:47:33;13.40;99.90
7934;DHT22;4012;48.896;9.192;2024-02-26T10:49:59;13.70;99.90
7934;DHT22;4012;48.896;9.192;2024-02-26T10:52:27;13.30;99.90
7934;DHT22;4012;48.896;9.192;2024-02-26T10:54:57;12.20;99.90
7934;DHT22;4012;48.896;9.192;2024-02-26T10:57:26;12.50;99.90
7934;DHT22;4012;48.896;9.192;2024-02-26T10:59:53;12.60;99.90
7934;DHT22;4012;48.896;9.192;2024-02-26T11:02:20;13.60;99.90
7934;DHT22;4012;48.896;9.192;2024-02-26T11:04:46;13.30;99.90
7934;DHT22;4012;48.896;9.192;2024-02-26T11:07:13;12.60;99.90
7934;DHT22;4012;48.896;9.192;2024-02-26T11:09:40;12.70;99.90
7934;DHT22;4012;48.896;9.192;2024-02-26T11:12:11;13.40;99.90
7934;DHT22;4012;48.896;9.192;2024-02-26T11:14:42;13.00;99.90
7934;DHT22;4012;48.896;9.192;2024-02-26T11:17:09;12.80;99.90
7934;DHT22;4012;48.896;9.192;2024-02-26T11:19:38;13.30;99.90
7934;DHT22;4012;48.896;9.192;2024-02-26T11:22:03;13.80;99.90
7934;DHT22;4012;48.896;9.192;2024-02-26T11:24:29;13.90;99.90
7934;DHT22;4012;48.896;9.192;2024-02-26T11:26:58;13.90;99.90
7934;DHT22;4012;48.896;9.192;2024-02-26T11:29:29;13.40;99.90
7934;DHT22;4012;48.896;9.192;2024-02-26T11:31:59;12.80;99.90
7934;DHT22;4012;48.896;9.192;2024-02-26T11:34:25;13.10;99.90
7934;DHT22;4012;48.896;9.192;2024-02-26T11:36:52;12.90;99.90
7934;DHT22;4012;48.896;9.192;2024-02-26T11:39:17;12.90;99.90
7934;DHT22;4012;48.896;9.192;2024-02-26T11:41:43;13.00;99.90
7934;DHT22;4012;48.896;9.192;2024-02-26T11:44:09;13.10;99.90
7934;DHT22;4012;48.896;9.192;2024-02-26T11:46:42;13.30;99.90
7934;DHT22;4012;48.896;9.192;2024-02-26T11:51:54;13.30;99.90
7934;DHT22;4012;48.896;9.192;2024-02-26T11:54:39;13.40;99.90
7934;DHT22;4012;48.896;9.192;2024-02-26T11:59:51;13.30;99.90
7934;DHT22;4012;48.896;9.192;2024-02-26T12:05:13;14.00;99.90
7934;DHT22;4012;48.896;9.192;2024-02-26T12:07:49;14.40;99.90
7934;DHT22;4012;48.896;9.192;2024-02-26T12:13:12;14.30;99.90
7934;DHT22;4012;48.896;9.192;2024-02-26T12:15:39;14.20;99.90
7934;DHT22;4012;48.896;9.192;2024-02-26T12:18:07;13.70;99.90
7934;DHT22;4012;48.896;9.192;2024-02-26T12:20:33;13.30;99.90
7934;DHT22;4012;48.896;9.192;2024-02-26T12:23:02;13.50;99.90
7934;DHT22;4012;48.896;9.192;2024-02-26T12:25:29;13.50;99.90
7934;DHT22;4012;48.896;9.192;2024-02-26T12:27:56;13.20;99.90
7934;DHT22;4012;48.896;9.192;2024-02-26T12:30:22;13.10;99.90
7934;DHT22;4012;48.896;9.192;2024-02-26T12:32:48;13.00;99.90
7934;DHT22;4012;48.896;9.192;2024-02-26T12:35:15;13.30;99.90
7934;DHT22;4012;48.896;9.192;2024-02-26T12:37:42;13.60;99.90
7934;DHT22;4012;48.896;9.192;2024-02-26T12:40:09;13.80;99.90
7934;DHT22;4012;48.896;9.192;2024-02-26T12:42:35;14.10;99.90
7934;DHT22;4012;48.896;9.192;2024-02-26T12:45:08;14.30;99.90
7934;DHT22;4012;48.896;9.192;2024-02-26T12:47:41;14.10;99.90
7934;DHT22;4012;48.896;9.192;2024-02-26T12:50:08;13.70;99.90
7934;DHT22;4012;48.896;9.192;2024-02-26T12:52:35;13.70;99.90
7934;DHT22;4012;48.896;9.192;2024-02-26T12:55:02;13.60;99.90
7934;DHT22;4012;48.896;9.192;2024-02-26T12:57:33;13.80;99.90
7934;DHT22;4012;48.896;9.192;2024-02-26T12:59:59;14.00;99.90
7934;DHT22;4012;48.896;9.192;2024-02-26T13:02:26;14.20;99.90
7934;DHT22;4012;48.896;9.192;2024-02-26T13:04:54;14.50;99.90
7934;DHT22;4012;48.896;9.192;2024-02-26T13:07:20;14.50;99.90
7934;DHT22;4012;48.896;9.192;2024-02-26T13:09:46;14.40;99.90
7934;DHT22;4012;48.896;9.192;2024-02-26T13:12:12;13.90;99.90
7934;DHT22;4012;48.896;9.192;2024-02-26T13:14:39;13.70;99.90
7934;DHT22;4012;48.896;9.192;2024-02-26T13:17:05;13.80;99.90
7934;DHT22;4012;48.896;9.192;2024-02-26T13:19:30;13.80;99.90
7934;DHT22;4012;48.896;9.192;2024-02-26T13:21:56;13.90;99.90
7934;DHT22;4012;48.896;9.192;2024-02-26T13:24:28;14.20;99.90
7934;DHT22;4012;48.896;9.192;2024-02-26T13:26:56;14.10;99.90
7934;DHT22;4012;48.896;9.192;2024-02-26T13:29:22;14.10;99.90
7934;DHT22;4012;48.896;9.192;2024-02-26T13:31:48;14.10;99.90
7934;DHT22;4012;48.896;9.192;2024-02-26T13:34:29;14.20;99.90
7934;DHT22;4012;48.896;9.192;2024-02-26T13:36:56;14.10;99.90
7934;DHT22;4012;48.896;9.192;2024-02-26T13:39:26;14.30;99.90
7934;DHT22;4012;48.896;9.192;2024-02-26T13:41:52;14.20;99.90
7934;DHT22;4012;48.896;9.192;2024-02-26T13:44:19;14.10;99.90
7934;DHT22;4012;48.896;9.192;2024-02-26T13:46:46;14.20;99.90
7934;DHT22;4012;48.896;9.192;2024-02-26T13:49:11;14.30;99.90
7934;DHT22;4012;48.896;9.192;2024-02-26T13:51:38;14.40;99.90
7934;DHT22;4012;48.896;9.192;2024-02-26T13:54:04;14.50;99.90
7934;DHT22;4012;48.896;9.192;2024-02-26T13:56:30;14.40;99.90
7934;DHT22;4012;48.896;9.192;2024-02-26T13:58:56;14.20;99.90
7934;DHT22;4012;48.896;9.192;2024-02-26T14:01:22;14.30;99.90
7934;DHT22;4012;48.896;9.192;2024-02-26T14:03:48;14.20;99.90
7934;DHT22;4012;48.896;9.192;2024-02-26T14:06:14;14.20;99.90
7934;DHT22;4012;48.896;9.192;2024-02-26T14:08:39;14.30;99.90
7934;DHT22;4012;48.896;9.192;2024-02-26T14:11:05;14.20;99.90
7934;DHT22;4012;48.896;9.192;2024-02-26T14:13:31;14.20;99.90
7934;DHT22;4012;48.896;9.192;2024-02-26T14:15:57;14.30;99.90
7934;DHT22;4012;48.896;9.192;2024-02-26T14:18:22;14.30;99.90
7934;DHT22;4012;48.896;9.192;2024-02-26T14:20:48;14.30;99.90
7934;DHT22;4012;48.896;9.192;2024-02-26T14:23:14;14.20;99.90
7934;DHT22;4012;48.896;9.192;2024-02-26T14:25:40;14.10;99.90
7934;DHT22;4012;48.896;9.192;2024-02-26T14:28:05;14.20;99.90
7934;DHT22;4012;48.896;9.192;2024-02-26T14:30:31;14.10;99.90
7934;DHT22;4012;48.896;9.192;2024-02-26T14:32:58;14.00;99.90
7934;DHT22;4012;48.896;9.192;2024-02-26T14:35:23;13.90;99.90
7934;DHT22;4012;48.896;9.192;2024-02-26T14:37:49;13.90;99.90
7934;DHT22;4012;48.896;9.192;2024-02-26T14:40:16;14.00;99.90
7934;DHT22;4012;48.896;9.192;2024-02-26T14:42:42;14.00;99.90
7934;DHT22;4012;48.896;9.192;2024-02-26T14:45:08;14.00;99.90
7934;DHT22;4012;48.896;9.192;2024-02-26T14:47:37;13.80;99.90
7934;DHT22;4012;48.896;9.192;2024-02-26T14:50:04;13.80;99.90
7934;DHT22;4012;48.896;9.192;2024-02-26T14:52:29;13.80;99.90
7934;DHT22;4012;48.896;9.192;2024-02-26T14:54:55;13.70;99.90
7934;DHT22;4012;48.896;9.192;2024-02-26T14:57:21;13.70;99.90
7934;DHT22;4012;48.896;9.192;2024-02-26T14:59:46;13.70;99.90
7934;DHT22;4012;48.896;9.192;2024-02-26T15:02:13;13.60;99.90
7934;DHT22;4012;48.896;9.192;2024-02-26T15:04:39;13.60;99.90
7934;DHT22;4012;48.896;9.192;2024-02-26T15:07:04;13.60;99.90
7934;DHT22;4012;48.896;9.192;2024-02-26T15:09:31;13.60;99.90
7934;DHT22;4012;48.896;9.192;2024-02-26T15:11:56;13.70;99.90
7934;DHT22;4012;48.896;9.192;2024-02-26T15:14:23;13.70;99.90
7934;DHT22;4012;48.896;9.192;2024-02-26T15:16:49;13.70;99.90
7934;DHT22;4012;48.896;9.192;2024-02-26T15:19:14;13.60;99.90
7934;DHT22;4012;48.896;9.192;2024-02-26T15:21:44;13.50;99.90
7934;DHT22;4012;48.896;9.192;2024-02-26T15:24:10;13.60;99.90
7934;DHT22;4012;48.896;9.192;2024-02-26T15:26:37;13.60;99.90
7934;DHT22;4012;48.896;9.192;2024-02-26T15:29:02;13.60;99.90
7934;DHT22;4012;48.896;9.192;2024-02-26T15:31:28;13.50;99.90
7934;DHT22;4012;48.896;9.192;2024-02-26T15:33:54;13.40;99.90
7934;DHT22;4012;48.896;9.192;2024-02-26T15:36:19;13.40;99.90
7934;DHT22;4012;48.896;9.192;2024-02-26T15:38:45;13.40;99.90
7934;DHT22;4012;48.896;9.192;2024-02-26T15:41:12;13.40;99.90
7934;DHT22;4012;48.896;9.192;2024-02-26T15:43:38;13.30;99.90
7934;DHT22;4012;48.896;9.192;2024-02-26T15:46:04;13.30;99.90
7934;DHT22;4012;48.896;9.192;2024-02-26T15:48:30;13.20;99.90
7934;DHT22;4012;48.896;9.192;2024-02-26T15:50:56;13.20;99.90
7934;DHT22;4012;48.896;9.192;2024-02-26T15:53:22;13.10;99.90
7934;DHT22;4012;48.896;9.192;2024-02-26T15:55:47;13.10;99.90
7934;DHT22;4012;48.896;9.192;2024-02-26T15:58:13;13.10;99.90
7934;DHT22;4012;48.896;9.192;2024-02-26T16:00:39;13.00;99.90
7934;DHT22;4012;48.896;9.192;2024-02-26T16:03:06;13.00;99.90
7934;DHT22;4012;48.896;9.192;2024-02-26T16:05:31;13.00;99.90
7934;DHT22;4012;48.896;9.192;2024-02-26T16:07:59;12.90;99.90
7934;DHT22;4012;48.896;9.192;2024-02-26T16:10:26;12.80;99.90
7934;DHT22;4012;48.896;9.192;2024-02-26T16:12:59;12.80;99.90
7934;DHT22;4012;48.896;9.192;2024-02-26T16:15:28;12.80;99.90
7934;DHT22;4012;48.896;9.192;2024-02-26T16:17:54;12.70;99.90